sensor_id;sensor_type;location;lat;lon;timestamp;P1;durP1;ratioP1;P2;durP2;ratioP2
5650;SDS011;40241;52.684;9.758;2023-02-28T00:00:19;1.83;;;1.40;;
5650;SDS011;40241;52.684;9.758;2023-02-28T00:02:45;1.77;;;1.33;;
5650;SDS011;40241;52.684;9.758;2023-02-28T00:05:12;1.40;;;1.20;;
5650;SDS011;40241;52.684;9.758;2023-02-28T00:07:38;1.73;;;1.60;;
5650;SDS011;40241;52.684;9.758;2023-02-28T00:10:09;4.83;;;2.90;;
5650;SDS011;40241;52.684;9.758;2023-02-28T00:12:37;5.03;;;4.17;;
5650;SDS011;40241;52.684;9.758;2023-02-28T00:15:07;8.97;;;6.10;;
5650;SDS011;40241;52.684;9.758;2023-02-28T00:17:34;6.07;;;5.13;;
5650;SDS011;40241;52.684;9.758;2023-02-28T00:20:00;3.70;;;2.90;;
5650;SDS011;40241;52.684;9.758;2023-02-28T00:22:37;2.27;;;2.07;;
5650;SDS011;40241;52.684;9.758;2023-02-28T00:25:04;1.60;;;1.50;;
5650;SDS011;40241;52.684;9.758;2023-02-28T00:27:31;4.70;;;1.30;;
5650;SDS011;40241;52.684;9.758;2023-02-28T00:29:57;1.30;;;1.20;;
5650;SDS011;40241;52.684;9.758;2023-02-28T00:32:22;1.43;;;1.33;;
5650;SDS011;40241;52.684;9.758;2023-02-28T00:34:48;3.33;;;1.53;;
5650;SDS011;40241;52.684;9.758;2023-02-28T00:37:13;1.67;;;1.23;;
5650;SDS011;40241;52.684;9.758;2023-02-28T00:39:38;1.40;;;1.33;;
5650;SDS011;40241;52.684;9.758;2023-02-28T00:42:04;1.60;;;1.50;;
5650;SDS011;40241;52.684;9.758;2023-02-28T00:44:31;1.30;;;1.20;;
5650;SDS011;40241;52.684;9.758;2023-02-28T00:46:57;1.70;;;1.50;;
5650;SDS011;40241;52.684;9.758;2023-02-28T00:49:23;1.43;;;1.23;;
5650;SDS011;40241;52.684;9.758;2023-02-28T00:51:49;1.47;;;1.37;;
5650;SDS011;40241;52.684;9.758;2023-02-28T00:54:15;1.90;;;1.80;;
5650;SDS011;40241;52.684;9.758;2023-02-28T00:56:41;1.60;;;1.50;;
5650;SDS011;40241;52.684;9.758;2023-02-28T00:59:06;1.47;;;1.37;;
5650;SDS011;40241;52.684;9.758;2023-02-28T01:01:32;2.40;;;1.90;;
5650;SDS011;40241;52.684;9.758;2023-02-28T01:03:57;1.77;;;1.40;;
5650;SDS011;40241;52.684;9.758;2023-02-28T01:06:22;3.23;;;1.70;;
5650;SDS011;40241;52.684;9.758;2023-02-28T01:08:48;1.53;;;1.43;;
5650;SDS011;40241;52.684;9.758;2023-02-28T01:11:14;2.70;;;1.60;;
5650;SDS011;40241;52.684;9.758;2023-02-28T01:13:42;1.70;;;1.60;;
5650;SDS011;40241;52.684;9.758;2023-02-28T01:16:08;1.83;;;1.73;;
5650;SDS011;40241;52.684;9.758;2023-02-28T01:18:33;1.90;;;1.80;;
5650;SDS011;40241;52.684;9.758;2023-02-28T01:21:03;1.50;;;1.40;;
5650;SDS011;40241;52.684;9.758;2023-02-28T01:23:29;4.93;;;2.07;;
5650;SDS011;40241;52.684;9.758;2023-02-28T01:25:54;2.40;;;1.83;;
5650;SDS011;40241;52.684;9.758;2023-02-28T01:28:20;1.63;;;1.53;;
5650;SDS011;40241;52.684;9.758;2023-02-28T01:30:49;1.80;;;1.70;;
5650;SDS011;40241;52.684;9.758;2023-02-28T01:33:16;2.50;;;1.97;;
5650;SDS011;40241;52.684;9.758;2023-02-28T01:35:41;2.00;;;1.80;;
5650;SDS011;40241;52.684;9.758;2023-02-28T01:38:06;2.37;;;2.17;;
5650;SDS011;40241;52.684;9.758;2023-02-28T01:40:32;2.20;;;2.00;;
5650;SDS011;40241;52.684;9.758;2023-02-28T01:42:57;2.10;;;1.90;;
5650;SDS011;40241;52.684;9.758;2023-02-28T01:45:27;1.73;;;1.63;;
5650;SDS011;40241;52.684;9.758;2023-02-28T01:47:54;2.47;;;2.20;;
5650;SDS011;40241;52.684;9.758;2023-02-28T01:50:24;2.87;;;2.00;;
5650;SDS011;40241;52.684;9.758;2023-02-28T01:52:51;1.77;;;1.67;;
5650;SDS011;40241;52.684;9.758;2023-02-28T01:55:20;2.30;;;1.50;;
5650;SDS011;40241;52.684;9.758;2023-02-28T01:57:51;3.20;;;1.90;;
5650;SDS011;40241;52.684;9.758;2023-02-28T02:00:20;2.37;;;2.20;;
5650;SDS011;40241;52.684;9.758;2023-02-28T02:02:49;3.33;;;1.53;;
5650;SDS011;40241;52.684;9.758;2023-02-28T02:05:20;3.03;;;2.33;;
5650;SDS011;40241;52.684;9.758;2023-02-28T02:07:47;4.07;;;2.47;;
5650;SDS011;40241;52.684;9.758;2023-02-28T02:10:17;1.80;;;1.33;;
5650;SDS011;40241;52.684;9.758;2023-02-28T02:15:30;2.13;;;1.93;;
5650;SDS011;40241;52.684;9.758;2023-02-28T02:18:03;3.63;;;2.20;;
5650;SDS011;40241;52.684;9.758;2023-02-28T02:23:20;3.03;;;2.00;;
5650;SDS011;40241;52.684;9.758;2023-02-28T02:29:13;2.70;;;1.60;;
5650;SDS011;40241;52.684;9.758;2023-02-28T02:37:25;1.87;;;1.77;;
5650;SDS011;40241;52.684;9.758;2023-02-28T02:42:28;1.90;;;1.67;;
5650;SDS011;40241;52.684;9.758;2023-02-28T02:45:03;1.90;;;1.70;;
5650;SDS011;40241;52.684;9.758;2023-02-28T02:47:35;2.13;;;1.90;;
5650;SDS011;40241;52.684;9.758;2023-02-28T02:50:03;2.00;;;1.80;;
5650;SDS011;40241;52.684;9.758;2023-02-28T02:52:38;2.90;;;1.67;;
5650;SDS011;40241;52.684;9.758;2023-02-28T02:55:07;2.30;;;1.90;;
5650;SDS011;40241;52.684;9.758;2023-02-28T02:57:38;2.00;;;1.80;;
5650;SDS011;40241;52.684;9.758;2023-02-28T03:00:37;2.83;;;1.90;;
5650;SDS011;40241;52.684;9.758;2023-02-28T03:03:09;1.80;;;1.70;;
5650;SDS011;40241;52.684;9.758;2023-02-28T03:05:41;2.13;;;1.60;;
5650;SDS011;40241;52.684;9.758;2023-02-28T03:08:11;1.97;;;1.70;;
5650;SDS011;40241;52.684;9.758;2023-02-28T03:10:40;1.80;;;1.70;;
5650;SDS011;40241;52.684;9.758;2023-02-28T03:19:00;1.77;;;1.67;;
5650;SDS011;40241;52.684;9.758;2023-02-28T03:27:29;4.43;;;1.70;;
5650;SDS011;40241;52.684;9.758;2023-02-28T03:30:42;2.03;;;1.83;;
5650;SDS011;40241;52.684;9.758;2023-02-28T03:33:15;2.10;;;1.90;;
5650;SDS011;40241;52.684;9.758;2023-02-28T03:36:00;4.07;;;2.00;;
5650;SDS011;40241;52.684;9.758;2023-02-28T03:38:48;2.63;;;1.80;;
5650;SDS011;40241;52.684;9.758;2023-02-28T03:41:23;1.70;;;1.60;;
5650;SDS011;40241;52.684;9.758;2023-02-28T03:43:54;1.67;;;1.40;;
5650;SDS011;40241;52.684;9.758;2023-02-28T03:46:24;2.80;;;1.57;;
5650;SDS011;40241;52.684;9.758;2023-02-28T03:49:02;1.40;;;1.30;;
5650;SDS011;40241;52.684;9.758;2023-02-28T03:51:34;2.20;;;1.60;;
5650;SDS011;40241;52.684;9.758;2023-02-28T03:54:37;1.60;;;1.50;;
5650;SDS011;40241;52.684;9.758;2023-02-28T03:57:02;2.13;;;1.40;;
5650;SDS011;40241;52.684;9.758;2023-02-28T03:59:34;1.67;;;1.57;;
5650;SDS011;40241;52.684;9.758;2023-02-28T04:02:05;3.20;;;1.50;;
5650;SDS011;40241;52.684;9.758;2023-02-28T04:04:31;1.90;;;1.80;;
5650;SDS011;40241;52.684;9.758;2023-02-28T04:07:03;2.07;;;1.80;;
5650;SDS011;40241;52.684;9.758;2023-02-28T04:09:30;2.53;;;1.77;;
5650;SDS011;40241;52.684;9.758;2023-02-28T04:11:56;1.40;;;1.30;;
5650;SDS011;40241;52.684;9.758;2023-02-28T04:14:22;3.57;;;1.93;;
5650;SDS011;40241;52.684;9.758;2023-02-28T04:16:48;1.67;;;1.57;;
5650;SDS011;40241;52.684;9.758;2023-02-28T04:19:14;1.60;;;1.50;;
5650;SDS011;40241;52.684;9.758;2023-02-28T04:21:40;1.70;;;1.50;;
5650;SDS011;40241;52.684;9.758;2023-02-28T04:24:08;1.77;;;1.67;;
5650;SDS011;40241;52.684;9.758;2023-02-28T04:26:39;1.50;;;1.40;;
5650;SDS011;40241;52.684;9.758;2023-02-28T04:29:05;2.80;;;1.80;;
5650;SDS011;40241;52.684;9.758;2023-02-28T04:31:32;1.67;;;1.50;;
5650;SDS011;40241;52.684;9.758;2023-02-28T04:33:57;5.60;;;1.50;;
5650;SDS011;40241;52.684;9.758;2023-02-28T04:36:22;1.63;;;1.53;;
5650;SDS011;40241;52.684;9.758;2023-02-28T04:38:48;1.43;;;1.33;;
5650;SDS011;40241;52.684;9.758;2023-02-28T04:41:14;2.20;;;1.80;;
5650;SDS011;40241;52.684;9.758;2023-02-28T04:43:40;1.60;;;1.50;;
5650;SDS011;40241;52.684;9.758;2023-02-28T04:46:05;1.80;;;1.60;;
5650;SDS011;40241;52.684;9.758;2023-02-28T04:48:32;1.33;;;1.23;;
5650;SDS011;40241;52.684;9.758;2023-02-28T04:51:05;1.93;;;1.33;;
5650;SDS011;40241;52.684;9.758;2023-02-28T04:53:33;1.40;;;1.30;;
5650;SDS011;40241;52.684;9.758;2023-02-28T04:55:58;2.23;;;1.63;;
5650;SDS011;40241;52.684;9.758;2023-02-28T04:58:24;1.80;;;1.47;;
5650;SDS011;40241;52.684;9.758;2023-02-28T05:00:50;1.70;;;1.60;;
5650;SDS011;40241;52.684;9.758;2023-02-28T05:03:17;1.80;;;1.70;;
5650;SDS011;40241;52.684;9.758;2023-02-28T05:05:42;4.83;;;1.80;;
5650;SDS011;40241;52.684;9.758;2023-02-28T05:08:07;1.80;;;1.60;;
5650;SDS011;40241;52.684;9.758;2023-02-28T05:10:34;1.47;;;1.30;;
5650;SDS011;40241;52.684;9.758;2023-02-28T05:13:00;4.70;;;1.63;;
5650;SDS011;40241;52.684;9.758;2023-02-28T05:15:25;1.53;;;1.43;;
5650;SDS011;40241;52.684;9.758;2023-02-28T05:17:51;1.60;;;1.50;;
5650;SDS011;40241;52.684;9.758;2023-02-28T05:20:16;1.83;;;1.70;;
5650;SDS011;40241;52.684;9.758;2023-02-28T05:22:42;1.63;;;1.40;;
5650;SDS011;40241;52.684;9.758;2023-02-28T05:25:10;1.57;;;1.47;;
5650;SDS011;40241;52.684;9.758;2023-02-28T05:27:38;3.77;;;1.30;;
5650;SDS011;40241;52.684;9.758;2023-02-28T05:30:04;1.87;;;1.77;;
5650;SDS011;40241;52.684;9.758;2023-02-28T05:32:31;1.97;;;1.67;;
5650;SDS011;40241;52.684;9.758;2023-02-28T05:34:56;1.70;;;1.60;;
5650;SDS011;40241;52.684;9.758;2023-02-28T05:37:21;3.90;;;1.83;;
5650;SDS011;40241;52.684;9.758;2023-02-28T05:39:47;2.40;;;1.97;;
5650;SDS011;40241;52.684;9.758;2023-02-28T05:42:12;6.30;;;2.00;;
5650;SDS011;40241;52.684;9.758;2023-02-28T05:44:38;4.50;;;2.50;;
5650;SDS011;40241;52.684;9.758;2023-02-28T05:47:03;4.13;;;3.07;;
5650;SDS011;40241;52.684;9.758;2023-02-28T05:49:29;3.23;;;2.93;;
5650;SDS011;40241;52.684;9.758;2023-02-28T05:51:54;3.60;;;2.90;;
5650;SDS011;40241;52.684;9.758;2023-02-28T05:54:19;2.87;;;2.57;;
5650;SDS011;40241;52.684;9.758;2023-02-28T05:56:45;2.90;;;2.70;;
5650;SDS011;40241;52.684;9.758;2023-02-28T05:59:11;6.00;;;2.73;;
5650;SDS011;40241;52.684;9.758;2023-02-28T06:01:40;4.10;;;2.70;;
5650;SDS011;40241;52.684;9.758;2023-02-28T06:04:08;3.63;;;2.77;;
5650;SDS011;40241;52.684;9.758;2023-02-28T06:06:34;5.00;;;3.10;;
5650;SDS011;40241;52.684;9.758;2023-02-28T06:09:02;4.20;;;3.03;;
5650;SDS011;40241;52.684;9.758;2023-02-28T06:11:30;2.87;;;2.67;;
5650;SDS011;40241;52.684;9.758;2023-02-28T06:13:57;2.40;;;2.20;;
5650;SDS011;40241;52.684;9.758;2023-02-28T06:16:24;2.50;;;2.17;;
5650;SDS011;40241;52.684;9.758;2023-02-28T06:18:51;2.90;;;2.20;;
5650;SDS011;40241;52.684;9.758;2023-02-28T06:21:17;1.63;;;1.50;;
5650;SDS011;40241;52.684;9.758;2023-02-28T06:23:43;1.70;;;1.60;;
5650;SDS011;40241;52.684;9.758;2023-02-28T06:26:08;1.90;;;1.47;;
5650;SDS011;40241;52.684;9.758;2023-02-28T06:28:34;2.27;;;1.80;;
5650;SDS011;40241;52.684;9.758;2023-02-28T06:30:59;4.87;;;2.47;;
5650;SDS011;40241;52.684;9.758;2023-02-28T06:33:24;4.20;;;1.97;;
5650;SDS011;40241;52.684;9.758;2023-02-28T06:35:50;2.50;;;2.30;;
5650;SDS011;40241;52.684;9.758;2023-02-28T06:38:16;4.40;;;2.10;;
5650;SDS011;40241;52.684;9.758;2023-02-28T06:40:43;1.93;;;1.83;;
5650;SDS011;40241;52.684;9.758;2023-02-28T06:43:08;3.30;;;2.10;;
5650;SDS011;40241;52.684;9.758;2023-02-28T06:45:40;1.80;;;1.70;;
5650;SDS011;40241;52.684;9.758;2023-02-28T06:48:06;2.87;;;2.00;;
5650;SDS011;40241;52.684;9.758;2023-02-28T06:50:32;2.13;;;1.93;;
5650;SDS011;40241;52.684;9.758;2023-02-28T06:52:58;1.57;;;1.47;;
5650;SDS011;40241;52.684;9.758;2023-02-28T06:55:23;1.70;;;1.60;;
5650;SDS011;40241;52.684;9.758;2023-02-28T06:57:48;2.47;;;2.07;;
5650;SDS011;40241;52.684;9.758;2023-02-28T07:00:15;2.10;;;1.90;;
5650;SDS011;40241;52.684;9.758;2023-02-28T07:02:41;3.43;;;2.13;;
5650;SDS011;40241;52.684;9.758;2023-02-28T07:05:06;2.37;;;1.47;;
5650;SDS011;40241;52.684;9.758;2023-02-28T07:07:32;1.83;;;1.73;;
5650;SDS011;40241;52.684;9.758;2023-02-28T07:09:58;1.60;;;1.50;;
5650;SDS011;40241;52.684;9.758;2023-02-28T07:12:23;1.50;;;1.50;;
5650;SDS011;40241;52.684;9.758;2023-02-28T07:14:49;2.27;;;1.80;;
5650;SDS011;40241;52.684;9.758;2023-02-28T07:17:14;2.17;;;1.87;;
5650;SDS011;40241;52.684;9.758;2023-02-28T07:19:39;1.80;;;1.70;;
5650;SDS011;40241;52.684;9.758;2023-02-28T07:22:05;1.40;;;1.30;;
5650;SDS011;40241;52.684;9.758;2023-02-28T07:24:31;1.60;;;1.33;;
5650;SDS011;40241;52.684;9.758;2023-02-28T07:26:56;1.40;;;1.30;;
5650;SDS011;40241;52.684;9.758;2023-02-28T07:29:22;1.87;;;1.40;;
5650;SDS011;40241;52.684;9.758;2023-02-28T07:31:47;1.33;;;1.13;;
5650;SDS011;40241;52.684;9.758;2023-02-28T07:34:15;1.87;;;1.50;;
5650;SDS011;40241;52.684;9.758;2023-02-28T07:36:40;1.50;;;1.40;;
5650;SDS011;40241;52.684;9.758;2023-02-28T07:39:06;2.03;;;1.93;;
5650;SDS011;40241;52.684;9.758;2023-02-28T07:41:31;2.30;;;2.10;;
5650;SDS011;40241;52.684;9.758;2023-02-28T07:43:59;2.07;;;1.70;;
5650;SDS011;40241;52.684;9.758;2023-02-28T07:46:25;1.87;;;1.77;;
5650;SDS011;40241;52.684;9.758;2023-02-28T07:48:51;3.17;;;1.90;;
5650;SDS011;40241;52.684;9.758;2023-02-28T07:51:18;3.13;;;2.03;;
5650;SDS011;40241;52.684;9.758;2023-02-28T07:53:44;1.80;;;1.50;;
5650;SDS011;40241;52.684;9.758;2023-02-28T07:56:09;3.37;;;1.80;;
5650;SDS011;40241;52.684;9.758;2023-02-28T07:58:35;1.83;;;1.63;;
5650;SDS011;40241;52.684;9.758;2023-02-28T08:01:07;1.70;;;1.60;;
5650;SDS011;40241;52.684;9.758;2023-02-28T08:03:34;1.50;;;1.40;;
5650;SDS011;40241;52.684;9.758;2023-02-28T08:06:00;2.33;;;1.50;;
5650;SDS011;40241;52.684;9.758;2023-02-28T08:08:27;1.20;;;1.10;;
5650;SDS011;40241;52.684;9.758;2023-02-28T08:10:57;1.57;;;1.40;;
5650;SDS011;40241;52.684;9.758;2023-02-28T08:13:27;1.10;;;1.00;;
5650;SDS011;40241;52.684;9.758;2023-02-28T08:15:54;1.70;;;1.60;;
5650;SDS011;40241;52.684;9.758;2023-02-28T08:18:20;1.20;;;1.10;;
5650;SDS011;40241;52.684;9.758;2023-02-28T08:20:46;1.57;;;1.47;;
5650;SDS011;40241;52.684;9.758;2023-02-28T08:23:12;1.40;;;1.30;;
5650;SDS011;40241;52.684;9.758;2023-02-28T08:25:37;2.93;;;1.20;;
5650;SDS011;40241;52.684;9.758;2023-02-28T08:28:02;1.70;;;1.60;;
5650;SDS011;40241;52.684;9.758;2023-02-28T08:30:28;2.03;;;1.40;;
5650;SDS011;40241;52.684;9.758;2023-02-28T08:32:53;1.47;;;1.37;;
5650;SDS011;40241;52.684;9.758;2023-02-28T08:35:20;1.57;;;1.40;;
5650;SDS011;40241;52.684;9.758;2023-02-28T08:37:48;1.70;;;1.60;;
5650;SDS011;40241;52.684;9.758;2023-02-28T08:40:14;1.53;;;1.43;;
5650;SDS011;40241;52.684;9.758;2023-02-28T08:42:43;3.07;;;1.93;;
5650;SDS011;40241;52.684;9.758;2023-02-28T08:45:09;2.20;;;2.10;;
5650;SDS011;40241;52.684;9.758;2023-02-28T08:47:35;1.80;;;1.70;;
5650;SDS011;40241;52.684;9.758;2023-02-28T08:50:00;2.07;;;1.87;;
5650;SDS011;40241;52.684;9.758;2023-02-28T08:52:26;2.53;;;1.40;;
5650;SDS011;40241;52.684;9.758;2023-02-28T08:54:51;1.43;;;1.33;;
5650;SDS011;40241;52.684;9.758;2023-02-28T08:57:16;1.20;;;1.10;;
5650;SDS011;40241;52.684;9.758;2023-02-28T08:59:42;5.60;;;1.90;;
5650;SDS011;40241;52.684;9.758;2023-02-28T09:02:08;1.77;;;1.20;;
5650;SDS011;40241;52.684;9.758;2023-02-28T09:04:36;1.53;;;1.40;;
5650;SDS011;40241;52.684;9.758;2023-02-28T09:07:02;1.80;;;1.40;;
5650;SDS011;40241;52.684;9.758;2023-02-28T09:09:27;3.07;;;1.53;;
5650;SDS011;40241;52.684;9.758;2023-02-28T09:11:54;2.03;;;1.20;;
5650;SDS011;40241;52.684;9.758;2023-02-28T09:14:20;3.43;;;1.57;;
5650;SDS011;40241;52.684;9.758;2023-02-28T09:16:46;1.60;;;1.50;;
5650;SDS011;40241;52.684;9.758;2023-02-28T09:19:11;1.70;;;1.20;;
5650;SDS011;40241;52.684;9.758;2023-02-28T09:21:37;2.90;;;1.20;;
5650;SDS011;40241;52.684;9.758;2023-02-28T09:24:03;1.57;;;1.47;;
5650;SDS011;40241;52.684;9.758;2023-02-28T09:26:28;1.90;;;1.40;;
5650;SDS011;40241;52.684;9.758;2023-02-28T09:28:54;4.00;;;1.13;;
5650;SDS011;40241;52.684;9.758;2023-02-28T09:31:23;1.00;;;1.00;;
5650;SDS011;40241;52.684;9.758;2023-02-28T09:33:51;2.20;;;1.00;;
5650;SDS011;40241;52.684;9.758;2023-02-28T09:36:18;2.63;;;0.83;;
5650;SDS011;40241;52.684;9.758;2023-02-28T09:38:44;1.23;;;0.87;;
5650;SDS011;40241;52.684;9.758;2023-02-28T09:41:13;2.10;;;0.90;;
5650;SDS011;40241;52.684;9.758;2023-02-28T09:43:41;7.00;;;0.87;;
5650;SDS011;40241;52.684;9.758;2023-02-28T09:48:57;1.23;;;0.60;;
5650;SDS011;40241;52.684;9.758;2023-02-28T09:51:37;0.70;;;0.63;;
5650;SDS011;40241;52.684;9.758;2023-02-28T09:54:13;0.80;;;0.60;;
5650;SDS011;40241;52.684;9.758;2023-02-28T09:56:43;0.80;;;0.70;;
5650;SDS011;40241;52.684;9.758;2023-02-28T09:59:18;0.60;;;0.50;;
5650;SDS011;40241;52.684;9.758;2023-02-28T10:06:57;0.77;;;0.53;;
5650;SDS011;40241;52.684;9.758;2023-02-28T10:09:29;0.40;;;0.40;;
5650;SDS011;40241;52.684;9.758;2023-02-28T10:11:59;0.53;;;0.50;;
5650;SDS011;40241;52.684;9.758;2023-02-28T10:14:30;0.40;;;0.40;;
5650;SDS011;40241;52.684;9.758;2023-02-28T10:17:02;1.03;;;0.50;;
5650;SDS011;40241;52.684;9.758;2023-02-28T10:19:44;0.50;;;0.40;;
5650;SDS011;40241;52.684;9.758;2023-02-28T10:22:22;0.70;;;0.50;;
5650;SDS011;40241;52.684;9.758;2023-02-28T10:24:54;0.50;;;0.40;;
5650;SDS011;40241;52.684;9.758;2023-02-28T10:27:31;0.70;;;0.47;;
5650;SDS011;40241;52.684;9.758;2023-02-28T10:29:58;0.70;;;0.53;;
5650;SDS011;40241;52.684;9.758;2023-02-28T10:32:32;0.50;;;0.40;;
5650;SDS011;40241;52.684;9.758;2023-02-28T10:35:18;2.10;;;0.40;;
5650;SDS011;40241;52.684;9.758;2023-02-28T10:37:48;2.43;;;2.00;;
5650;SDS011;40241;52.684;9.758;2023-02-28T10:42:55;1.20;;;1.10;;
5650;SDS011;40241;52.684;9.758;2023-02-28T10:45:22;0.50;;;0.50;;
5650;SDS011;40241;52.684;9.758;2023-02-28T10:50:26;0.60;;;0.60;;
5650;SDS011;40241;52.684;9.758;2023-02-28T11:00:56;0.60;;;0.60;;
5650;SDS011;40241;52.684;9.758;2023-02-28T11:03:31;4.63;;;0.80;;
5650;SDS011;40241;52.684;9.758;2023-02-28T11:05:58;0.80;;;0.60;;
5650;SDS011;40241;52.684;9.758;2023-02-28T11:08:29;0.50;;;0.40;;
5650;SDS011;40241;52.684;9.758;2023-02-28T11:10:55;1.23;;;0.70;;
5650;SDS011;40241;52.684;9.758;2023-02-28T11:13:27;0.60;;;0.60;;
5650;SDS011;40241;52.684;9.758;2023-02-28T11:15:57;0.50;;;0.40;;
5650;SDS011;40241;52.684;9.758;2023-02-28T11:21:09;1.00;;;0.60;;
5650;SDS011;40241;52.684;9.758;2023-02-28T11:23:42;1.90;;;0.50;;
5650;SDS011;40241;52.684;9.758;2023-02-28T11:26:08;0.40;;;0.40;;
5650;SDS011;40241;52.684;9.758;2023-02-28T11:28:37;1.37;;;0.40;;
5650;SDS011;40241;52.684;9.758;2023-02-28T11:33:43;1.00;;;0.50;;
5650;SDS011;40241;52.684;9.758;2023-02-28T11:36:15;1.10;;;0.63;;
5650;SDS011;40241;52.684;9.758;2023-02-28T11:38:44;0.47;;;0.40;;
5650;SDS011;40241;52.684;9.758;2023-02-28T11:41:22;0.67;;;0.67;;
5650;SDS011;40241;52.684;9.758;2023-02-28T11:46:58;1.93;;;0.90;;
5650;SDS011;40241;52.684;9.758;2023-02-28T11:52:28;0.83;;;0.47;;
5650;SDS011;40241;52.684;9.758;2023-02-28T11:57:51;1.80;;;0.60;;
5650;SDS011;40241;52.684;9.758;2023-02-28T12:03:15;0.50;;;0.40;;
5650;SDS011;40241;52.684;9.758;2023-02-28T12:19:45;0.50;;;0.40;;
5650;SDS011;40241;52.684;9.758;2023-02-28T12:27:47;0.60;;;0.60;;
5650;SDS011;40241;52.684;9.758;2023-02-28T12:30:58;0.60;;;0.40;;
5650;SDS011;40241;52.684;9.758;2023-02-28T12:33:07;0.50;;;0.50;;
5650;SDS011;40241;52.684;9.758;2023-02-28T12:35:39;0.73;;;0.57;;
5650;SDS011;40241;52.684;9.758;2023-02-28T12:38:13;0.50;;;0.40;;
5650;SDS011;40241;52.684;9.758;2023-02-28T12:40:49;0.90;;;0.53;;
5650;SDS011;40241;52.684;9.758;2023-02-28T12:43:19;1.97;;;0.60;;
5650;SDS011;40241;52.684;9.758;2023-02-28T12:45:55;0.50;;;0.40;;
5650;SDS011;40241;52.684;9.758;2023-02-28T12:48:25;0.50;;;0.40;;
5650;SDS011;40241;52.684;9.758;2023-02-28T12:50:56;0.70;;;0.40;;
5650;SDS011;40241;52.684;9.758;2023-02-28T12:58:51;1.07;;;0.40;;
5650;SDS011;40241;52.684;9.758;2023-02-28T13:09:35;0.60;;;0.40;;
5650;SDS011;40241;52.684;9.758;2023-02-28T13:12:01;0.50;;;0.40;;
5650;SDS011;40241;52.684;9.758;2023-02-28T13:14:38;0.60;;;0.40;;
5650;SDS011;40241;52.684;9.758;2023-02-28T13:19:34;0.60;;;0.60;;
5650;SDS011;40241;52.684;9.758;2023-02-28T13:22:03;0.53;;;0.50;;
5650;SDS011;40241;52.684;9.758;2023-02-28T13:24:36;0.80;;;0.40;;
5650;SDS011;40241;52.684;9.758;2023-02-28T13:29:33;0.60;;;0.50;;
5650;SDS011;40241;52.684;9.758;2023-02-28T13:39:58;2.47;;;2.27;;
5650;SDS011;40241;52.684;9.758;2023-02-28T13:42:48;1.60;;;1.50;;
5650;SDS011;40241;52.684;9.758;2023-02-28T13:45:26;1.60;;;1.50;;
5650;SDS011;40241;52.684;9.758;2023-02-28T13:47:57;0.83;;;0.80;;
5650;SDS011;40241;52.684;9.758;2023-02-28T13:53:00;0.60;;;0.50;;
5650;SDS011;40241;52.684;9.758;2023-02-28T13:55:46;1.73;;;0.53;;
5650;SDS011;40241;52.684;9.758;2023-02-28T14:08:57;0.70;;;0.50;;
5650;SDS011;40241;52.684;9.758;2023-02-28T14:11:35;1.53;;;0.70;;
5650;SDS011;40241;52.684;9.758;2023-02-28T14:14:03;0.57;;;0.53;;
5650;SDS011;40241;52.684;9.758;2023-02-28T14:16:39;1.90;;;0.50;;
5650;SDS011;40241;52.684;9.758;2023-02-28T14:27:43;2.10;;;0.63;;
5650;SDS011;40241;52.684;9.758;2023-02-28T14:38:45;0.50;;;0.50;;
5650;SDS011;40241;52.684;9.758;2023-02-28T14:41:20;0.57;;;0.50;;
5650;SDS011;40241;52.684;9.758;2023-02-28T14:43:55;1.17;;;0.50;;
5650;SDS011;40241;52.684;9.758;2023-02-28T14:46:23;0.90;;;0.57;;
5650;SDS011;40241;52.684;9.758;2023-02-28T14:48:52;0.60;;;0.57;;
5650;SDS011;40241;52.684;9.758;2023-02-28T14:51:18;1.00;;;0.80;;
5650;SDS011;40241;52.684;9.758;2023-02-28T14:53:47;0.60;;;0.50;;
5650;SDS011;40241;52.684;9.758;2023-02-28T14:56:20;0.80;;;0.50;;
5650;SDS011;40241;52.684;9.758;2023-02-28T14:58:51;1.10;;;0.60;;
5650;SDS011;40241;52.684;9.758;2023-02-28T15:01:18;0.50;;;0.30;;
5650;SDS011;40241;52.684;9.758;2023-02-28T15:03:46;0.60;;;0.60;;
5650;SDS011;40241;52.684;9.758;2023-02-28T15:06:13;0.50;;;0.50;;
5650;SDS011;40241;52.684;9.758;2023-02-28T15:08:43;0.60;;;0.50;;
5650;SDS011;40241;52.684;9.758;2023-02-28T15:11:17;0.90;;;0.60;;
5650;SDS011;40241;52.684;9.758;2023-02-28T15:13:53;0.70;;;0.50;;
5650;SDS011;40241;52.684;9.758;2023-02-28T15:16:35;0.70;;;0.50;;
5650;SDS011;40241;52.684;9.758;2023-02-28T15:19:06;0.50;;;0.40;;
5650;SDS011;40241;52.684;9.758;2023-02-28T15:21:40;2.90;;;0.70;;
5650;SDS011;40241;52.684;9.758;2023-02-28T15:26:50;0.50;;;0.40;;
5650;SDS011;40241;52.684;9.758;2023-02-28T15:29:20;0.60;;;0.40;;
5650;SDS011;40241;52.684;9.758;2023-02-28T15:37:00;0.50;;;0.30;;
5650;SDS011;40241;52.684;9.758;2023-02-28T15:39:27;1.00;;;0.40;;
5650;SDS011;40241;52.684;9.758;2023-02-28T15:42:16;0.70;;;0.70;;
5650;SDS011;40241;52.684;9.758;2023-02-28T15:44:43;0.50;;;0.40;;
5650;SDS011;40241;52.684;9.758;2023-02-28T15:47:28;1.17;;;0.57;;
5650;SDS011;40241;52.684;9.758;2023-02-28T15:49:56;0.87;;;0.40;;
5650;SDS011;40241;52.684;9.758;2023-02-28T15:54:56;0.50;;;0.40;;
5650;SDS011;40241;52.684;9.758;2023-02-28T15:57:27;0.57;;;0.40;;
5650;SDS011;40241;52.684;9.758;2023-02-28T15:59:58;0.60;;;0.60;;
5650;SDS011;40241;52.684;9.758;2023-02-28T16:07:27;1.27;;;0.80;;
5650;SDS011;40241;52.684;9.758;2023-02-28T16:09:53;1.17;;;0.47;;
5650;SDS011;40241;52.684;9.758;2023-02-28T16:12:18;0.50;;;0.30;;
5650;SDS011;40241;52.684;9.758;2023-02-28T16:14:50;0.60;;;0.40;;
5650;SDS011;40241;52.684;9.758;2023-02-28T16:17:22;0.50;;;0.50;;
5650;SDS011;40241;52.684;9.758;2023-02-28T16:19:49;0.60;;;0.50;;
5650;SDS011;40241;52.684;9.758;2023-02-28T16:22:15;0.80;;;0.60;;
5650;SDS011;40241;52.684;9.758;2023-02-28T16:24:40;0.50;;;0.40;;
5650;SDS011;40241;52.684;9.758;2023-02-28T16:27:06;0.53;;;0.40;;
5650;SDS011;40241;52.684;9.758;2023-02-28T16:29:39;0.40;;;0.40;;
5650;SDS011;40241;52.684;9.758;2023-02-28T16:32:05;0.50;;;0.50;;
5650;SDS011;40241;52.684;9.758;2023-02-28T16:34:31;1.03;;;0.47;;
5650;SDS011;40241;52.684;9.758;2023-02-28T16:36:56;0.63;;;0.57;;
5650;SDS011;40241;52.684;9.758;2023-02-28T16:39:23;0.70;;;0.57;;
5650;SDS011;40241;52.684;9.758;2023-02-28T16:41:49;1.07;;;0.67;;
5650;SDS011;40241;52.684;9.758;2023-02-28T16:46:57;0.50;;;0.50;;
5650;SDS011;40241;52.684;9.758;2023-02-28T16:49:24;0.70;;;0.50;;
5650;SDS011;40241;52.684;9.758;2023-02-28T16:51:50;0.60;;;0.57;;
5650;SDS011;40241;52.684;9.758;2023-02-28T16:54:15;0.70;;;0.60;;
5650;SDS011;40241;52.684;9.758;2023-02-28T16:56:42;0.47;;;0.40;;
5650;SDS011;40241;52.684;9.758;2023-02-28T16:59:10;0.50;;;0.40;;
5650;SDS011;40241;52.684;9.758;2023-02-28T17:01:36;0.50;;;0.40;;
5650;SDS011;40241;52.684;9.758;2023-02-28T17:04:02;0.50;;;0.40;;
5650;SDS011;40241;52.684;9.758;2023-02-28T17:06:28;0.60;;;0.50;;
5650;SDS011;40241;52.684;9.758;2023-02-28T17:08:54;0.50;;;0.40;;
5650;SDS011;40241;52.684;9.758;2023-02-28T17:11:21;0.93;;;0.40;;
5650;SDS011;40241;52.684;9.758;2023-02-28T17:13:46;0.40;;;0.30;;
5650;SDS011;40241;52.684;9.758;2023-02-28T17:18:54;0.87;;;0.40;;
5650;SDS011;40241;52.684;9.758;2023-02-28T17:21:22;0.50;;;0.40;;
5650;SDS011;40241;52.684;9.758;2023-02-28T17:23:48;1.03;;;0.50;;
5650;SDS011;40241;52.684;9.758;2023-02-28T17:26:14;1.30;;;0.60;;
5650;SDS011;40241;52.684;9.758;2023-02-28T17:28:44;0.60;;;0.50;;
5650;SDS011;40241;52.684;9.758;2023-02-28T17:31:10;0.50;;;0.40;;
5650;SDS011;40241;52.684;9.758;2023-02-28T17:33:35;1.70;;;0.50;;
5650;SDS011;40241;52.684;9.758;2023-02-28T17:36:01;0.50;;;0.40;;
5650;SDS011;40241;52.684;9.758;2023-02-28T17:38:26;1.93;;;0.77;;
5650;SDS011;40241;52.684;9.758;2023-02-28T17:40:52;2.20;;;0.60;;
5650;SDS011;40241;52.684;9.758;2023-02-28T17:43:22;1.00;;;0.60;;
5650;SDS011;40241;52.684;9.758;2023-02-28T17:45:48;1.13;;;0.67;;
5650;SDS011;40241;52.684;9.758;2023-02-28T17:48:13;0.70;;;0.50;;
5650;SDS011;40241;52.684;9.758;2023-02-28T17:50:38;0.60;;;0.50;;
5650;SDS011;40241;52.684;9.758;2023-02-28T17:53:04;0.60;;;0.60;;